Time;durP1;ratioP1;P1;durP2;ratioP2;P2;SDS_P1;SDS_P2;PMS_P1;PMS_P2;Temp;Humidity;BMP_temperature;BMP_pressure;BME280_temperature;BME280_humidity;BME280_pressure;Samples;Min_cycle;Max_cycle;Signal;HPM_P1;HPM_P2
2022/05/29 00:00:15;;;;;;;3.83;1.52;;;;;;;;;;5014552;28;19928;-67
2022/05/29 00:02:48;;;;;;;2.92;1.52;;;;;;;;;;5008910;28;20057;-67
2022/05/29 00:05:18;;;;;;;7.55;3.72;;;;;;;;;;5012085;28;20053;-67
2022/05/29 00:07:50;;;;;;;5.65;2.60;;;;;;;;;;5009211;28;20068;-67
2022/05/29 00:10:21;;;;;;;5.35;2.78;;;;;;;;;;5010097;28;20093;-67
2022/05/29 00:12:52;;;;;;;4.03;1.98;;;;;;;;;;5009582;28;20527;-66
2022/05/29 00:15:22;;;;;;;3.65;1.98;;;;;;;;;;5029965;28;20509;-67
2022/05/29 00:17:53;;;;;;;6.53;3.42;;;;;;;;;;5027981;28;20060;-67
2022/05/29 00:20:23;;;;;;;6.32;2.72;;;;;;;;;;5055923;28;20748;-68
2022/05/29 00:22:54;;;;;;;8.57;4.15;;;;;;;;;;5015370;28;20520;-67
2022/05/29 00:25:24;;;;;;;7.00;3.60;;;;;;;;;;5042705;28;20417;-68
2022/05/29 00:27:54;;;;;;;4.45;1.83;;;;;;;;;;5017063;28;20049;-68
2022/05/29 00:30:25;;;;;;;4.35;2.05;;;;;;;;;;5015437;28;20049;-68
2022/05/29 00:32:55;;;;;;;7.20;2.47;;;;;;;;;;5007970;28;20468;-68
2022/05/29 00:35:25;;;;;;;6.18;2.47;;;;;;;;;;5048584;28;20075;-68
2022/05/29 00:37:56;;;;;;;5.50;2.08;;;;;;;;;;5047989;28;20048;-68
2022/05/29 00:40:39;;;;;;;5.32;2.10;;;;;;;;;;5051640;28;20453;-68
2022/05/29 00:43:09;;;;;;;4.07;1.90;;;;;;;;;;5059644;28;20053;-68
2022/05/29 00:45:50;;;;;;;4.03;2.20;;;;;;;;;;5050015;28;20057;-68
2022/05/29 00:48:21;;;;;;;5.45;1.80;;;;;;;;;;5049328;28;20052;-68
2022/05/29 00:50:55;;;;;;;3.50;1.73;;;;;;;;;;5057842;28;20094;-68
2022/05/29 00:53:27;;;;;;;3.28;2.00;;;;;;;;;;5059359;28;20064;-68
2022/05/29 00:56:05;;;;;;;3.60;2.10;;;;;;;;;;5061784;28;20049;-67
2022/05/29 00:58:36;;;;;;;9.48;5.35;;;;;;;;;;5070379;28;20036;-67
2022/05/29 01:01:07;;;;;;;6.15;3.50;;;;;;;;;;5054001;28;20040;-67
2022/05/29 01:03:38;;;;;;;6.00;3.53;;;;;;;;;;5066359;28;20060;-67
2022/05/29 01:06:08;;;;;;;6.18;2.85;;;;;;;;;;5069864;28;20048;-67
2022/05/29 01:08:38;;;;;;;5.60;2.25;;;;;;;;;;5070003;28;20049;-67
2022/05/29 01:11:30;;;;;;;3.95;1.88;;;;;;;;;;5070234;28;20059;-67
2022/05/29 01:14:41;;;;;;;5.00;1.77;;;;;;;;;;5038133;28;20067;-67
2022/05/29 01:17:32;;;;;;;4.78;2.20;;;;;;;;;;5069930;28;20052;-68
2022/05/29 01:20:07;;;;;;;4.38;2.10;;;;;;;;;;5070070;28;20056;-67
2022/05/29 01:22:57;;;;;;;5.35;2.33;;;;;;;;;;5070382;28;20056;-67
2022/05/29 01:25:48;;;;;;;6.05;2.63;;;;;;;;;;5069696;28;20068;-68
2022/05/29 01:28:41;;;;;;;5.53;2.67;;;;;;;;;;5036386;28;20523;-69
2022/05/29 01:31:40;;;;;;;7.78;2.30;;;;;;;;;;5069752;28;20057;-68
2022/05/29 01:34:21;;;;;;;;;;;;;;;;;;5070111;28;20393;-68
2022/05/29 01:37:16;;;;;;;4.65;2.13;;;;;;;;;;4992736;28;19944;-68
2022/05/29 01:39:55;;;;;;;4.55;2.45;;;;;;;;;;5009937;28;20414;-68
2022/05/29 01:42:44;;;;;;;4.93;2.25;;;;;;;;;;4961402;28;20049;-69
2022/05/29 01:45:21;;;;;;;5.75;2.50;;;;;;;;;;5029404;28;20045;-68
2022/05/29 01:48:08;;;;;;;4.63;2.50;;;;;;;;;;5029449;28;20222;-67
2022/05/29 01:50:45;;;;;;;7.75;3.33;;;;;;;;;;5029506;28;20049;-68
2022/05/29 01:53:20;;;;;;;4.93;2.50;;;;;;;;;;5013953;28;20501;-69
2022/05/29 01:55:58;;;;;;;5.80;2.22;;;;;;;;;;5029150;28;20060;-68
2022/05/29 01:58:39;;;;;;;5.25;2.33;;;;;;;;;;5029356;28;20053;-68
2022/05/29 02:01:12;;;;;;;3.70;2.00;;;;;;;;;;5029254;28;20057;-69
2022/05/29 02:03:47;;;;;;;5.78;2.10;;;;;;;;;;5029121;28;20092;-68
2022/05/29 02:07:47;;;;;;;3.90;2.00;;;;;;;;;;5029315;28;20068;-72
2022/05/29 02:09:33;;;;;;;5.50;2.13;;;;;;;;;;5029360;28;20430;-71
2022/05/29 02:12:08;;;;;;;3.95;1.88;;;;;;;;;;4980130;28;20053;-69
2022/05/29 02:14:42;;;;;;;3.55;1.98;;;;;;;;;;5052503;28;20057;-68
2022/05/29 02:17:18;;;;;;;3.83;1.77;;;;;;;;;;5052527;28;20057;-69
2022/05/29 02:19:53;;;;;;;3.08;1.65;;;;;;;;;;5071210;28;20045;-68
2022/05/29 02:22:28;;;;;;;4.70;1.77;;;;;;;;;;5028816;28;20069;-68
2022/05/29 02:25:10;;;;;;;4.15;1.88;;;;;;;;;;4948799;28;20056;-69
2022/05/29 02:27:53;;;;;;;4.65;1.92;;;;;;;;;;5012699;28;20052;-69
2022/05/29 02:30:52;;;;;;;4.30;2.17;;;;;;;;;;5028873;28;20053;-71
2022/05/29 02:33:27;;;;;;;4.18;1.58;;;;;;;;;;5027071;28;20421;-70
2022/05/29 02:36:24;;;;;;;3.67;1.83;;;;;;;;;;5008632;28;20170;-70
2022/05/29 02:39:03;;;;;;;3.53;1.77;;;;;;;;;;4960665;28;20061;-71
2022/05/29 02:41:54;;;;;;;4.80;1.90;;;;;;;;;;5009183;28;20057;-70
2022/05/29 02:44:47;;;;;;;5.15;2.25;;;;;;;;;;4969836;28;20050;-70
2022/05/29 02:47:38;;;;;;;5.10;2.13;;;;;;;;;;4970022;28;20554;-70
2022/05/29 02:50:31;;;;;;;3.13;1.85;;;;;;;;;;4970154;28;20554;-70
2022/05/29 02:53:08;;;;;;;7.72;1.80;;;;;;;;;;4969634;28;20059;-71
2022/05/29 02:55:40;;;;;;;3.88;1.70;;;;;;;;;;4969854;28;20077;-70
2022/05/29 02:58:23;;;;;;;4.65;1.90;;;;;;;;;;4969757;28;20058;-70
2022/05/29 03:01:29;;;;;;;5.32;1.95;;;;;;;;;;4983041;28;20422;-73
2022/05/29 03:04:14;;;;;;;4.38;1.92;;;;;;;;;;4893540;29;20117;-72
2022/05/29 03:06:55;;;;;;;4.10;1.80;;;;;;;;;;4893426;29;20069;-70
2022/05/29 03:10:13;;;;;;;5.13;1.98;;;;;;;;;;4878263;29;20063;-70
2022/05/29 03:13:01;;;;;;;4.53;1.50;;;;;;;;;;4853771;29;20132;-71
2022/05/29 03:15:34;;;;;;;4.22;1.65;;;;;;;;;;4837734;29;20065;-70
2022/05/29 03:18:32;;;;;;;2.85;1.50;;;;;;;;;;4823095;29;20081;-70
2022/05/29 03:21:14;;;;;;;4.38;1.70;;;;;;;;;;4840764;29;20058;-72
2022/05/29 03:23:57;;;;;;;3.15;1.55;;;;;;;;;;4859889;29;20057;-72
2022/05/29 03:26:57;;;;;;;3.83;1.40;;;;;;;;;;4875479;29;20061;-70
2022/05/29 03:29:50;;;;;;;2.03;1.27;;;;;;;;;;4878190;29;20065;-72
2022/05/29 03:32:21;;;;;;;2.70;1.23;;;;;;;;;;4878324;29;20430;-71
2022/05/29 03:34:53;;;;;;;4.32;1.77;;;;;;;;;;4843579;29;20057;-72
2022/05/29 03:37:23;;;;;;;;;;;;;;;;;;4841047;29;20078;-70
2022/05/29 03:39:53;;;;;;;2.03;1.25;;;;;;;;;;4852138;29;19923;-72
2022/05/29 03:42:23;;;;;;;5.80;1.23;;;;;;;;;;4934739;29;20052;-73
2022/05/29 03:44:54;;;;;;;2.50;1.17;;;;;;;;;;4899165;29;20200;-69
2022/05/29 03:47:25;;;;;;;2.50;1.05;;;;;;;;;;4853640;29;20465;-71
2022/05/29 03:49:55;;;;;;;6.05;1.30;;;;;;;;;;4941472;29;20051;-71
2022/05/29 03:52:25;;;;;;;4.43;1.20;;;;;;;;;;4953744;29;20056;-71
2022/05/29 03:54:55;;;;;;;4.20;1.25;;;;;;;;;;4972536;28;20415;-72
2022/05/29 03:57:26;;;;;;;2.58;1.20;;;;;;;;;;4972750;28;20054;-71
2022/05/29 03:59:57;;;;;;;3.90;1.23;;;;;;;;;;4941188;28;20432;-72
2022/05/29 04:02:27;;;;;;;2.42;1.50;;;;;;;;;;4957042;28;20059;-71
2022/05/29 04:04:57;;;;;;;2.47;1.17;;;;;;;;;;4972659;28;20736;-72
2022/05/29 04:13:05;;;;;;;3.70;1.30;;;;;;;;;;5005724;28;20062;-73
2022/05/29 04:15:41;;;;;;;3.08;1.33;;;;;;;;;;4978748;28;20058;-71
2022/05/29 04:18:15;;;;;;;4.57;1.83;;;;;;;;;;5011687;28;20058;-71
2022/05/29 04:20:46;;;;;;;3.40;1.40;;;;;;;;;;4991462;28;20502;-71
2022/05/29 04:23:16;;;;;;;6.55;1.60;;;;;;;;;;4974768;28;20097;-71
2022/05/29 04:25:46;;;;;;;5.35;1.90;;;;;;;;;;4969535;28;20054;-71
2022/05/29 04:28:18;;;;;;;3.22;1.70;;;;;;;;;;4991548;28;20070;-71
2022/05/29 04:30:49;;;;;;;6.50;1.58;;;;;;;;;;4991664;28;20051;-71
2022/05/29 04:33:19;;;;;;;3.90;1.45;;;;;;;;;;4991235;28;20113;-71
2022/05/29 04:35:52;;;;;;;3.38;1.40;;;;;;;;;;4991317;28;20059;-71
2022/05/29 04:38:24;;;;;;;3.80;1.40;;;;;;;;;;4951748;28;20051;-71
2022/05/29 04:40:56;;;;;;;2.33;1.20;;;;;;;;;;4952493;29;20059;-70
2022/05/29 04:43:26;;;;;;;3.40;1.83;;;;;;;;;;4952313;29;20067;-72
2022/05/29 04:45:56;;;;;;;5.00;1.67;;;;;;;;;;4920319;29;20079;-71
2022/05/29 04:48:27;;;;;;;5.30;1.52;;;;;;;;;;4924760;29;20071;-71
2022/05/29 04:51:03;;;;;;;4.57;1.65;;;;;;;;;;4871884;29;20056;-70
2022/05/29 04:53:34;;;;;;;4.05;1.55;;;;;;;;;;4895460;29;20060;-72
2022/05/29 04:56:04;;;;;;;4.68;1.30;;;;;;;;;;4911063;29;20053;-71
2022/05/29 04:58:35;;;;;;;5.40;1.55;;;;;;;;;;4886025;29;20051;-70
2022/05/29 05:01:05;;;;;;;3.50;1.42;;;;;;;;;;4933126;29;20066;-71
2022/05/29 05:03:36;;;;;;;3.03;1.33;;;;;;;;;;4933095;29;20051;-69
2022/05/29 05:06:06;;;;;;;2.60;1.20;;;;;;;;;;4955277;28;20047;-72
2022/05/29 05:08:36;;;;;;;3.40;1.50;;;;;;;;;;4971418;28;20039;-71
2022/05/29 05:11:07;;;;;;;3.78;1.67;;;;;;;;;;4966451;28;20065;-71
2022/05/29 05:13:38;;;;;;;3.90;1.33;;;;;;;;;;4990882;28;20062;-70
2022/05/29 05:16:08;;;;;;;5.45;1.70;;;;;;;;;;5012175;28;20076;-71
2022/05/29 05:18:38;;;;;;;2.35;1.27;;;;;;;;;;5010164;28;20076;-71
2022/05/29 05:21:09;;;;;;;3.25;1.30;;;;;;;;;;5009868;28;20066;-70
2022/05/29 05:23:40;;;;;;;5.35;1.40;;;;;;;;;;5010241;28;20640;-71
2022/05/29 05:26:13;;;;;;;3.08;1.33;;;;;;;;;;5020413;28;20058;-73
2022/05/29 05:28:43;;;;;;;2.30;1.23;;;;;;;;;;5010162;28;20058;-72
2022/05/29 05:31:14;;;;;;;3.15;1.50;;;;;;;;;;4974291;28;20050;-70
2022/05/29 05:33:45;;;;;;;6.70;1.60;;;;;;;;;;4990525;28;20503;-71
2022/05/29 05:36:15;;;;;;;4.72;1.58;;;;;;;;;;4990235;28;20066;-71
2022/05/29 05:38:46;;;;;;;5.00;1.33;;;;;;;;;;4947807;29;20054;-71
2022/05/29 05:41:16;;;;;;;3.47;1.50;;;;;;;;;;4932518;29;20070;-71
2022/05/29 05:43:47;;;;;;;3.47;1.60;;;;;;;;;;4913416;29;20063;-72
2022/05/29 05:46:20;;;;;;;3.67;1.50;;;;;;;;;;4913214;29;20560;-72
2022/05/29 05:48:51;;;;;;;4.35;1.48;;;;;;;;;;4912288;29;20048;-68
2022/05/29 05:51:21;;;;;;;5.03;1.80;;;;;;;;;;4913363;29;20052;-71
2022/05/29 05:53:52;;;;;;;2.95;1.30;;;;;;;;;;4913480;29;20142;-71
2022/05/29 05:56:22;;;;;;;3.03;1.52;;;;;;;;;;4923060;29;20056;-71
2022/05/29 05:58:52;;;;;;;3.75;1.55;;;;;;;;;;4932646;29;20062;-72
2022/05/29 06:01:22;;;;;;;4.60;1.30;;;;;;;;;;4932001;29;20069;-71
2022/05/29 06:03:59;;;;;;;2.90;1.73;;;;;;;;;;4884994;29;20047;-71
2022/05/29 06:06:29;;;;;;;3.35;1.40;;;;;;;;;;4942514;29;20051;-70
2022/05/29 06:09:00;;;;;;;6.25;1.70;;;;;;;;;;4961860;28;20055;-70
2022/05/29 06:11:30;;;;;;;5.07;1.95;;;;;;;;;;4970235;28;20053;-71
2022/05/29 06:14:01;;;;;;;3.90;1.63;;;;;;;;;;4970511;28;20054;-71
2022/05/29 06:16:31;;;;;;;4.68;1.65;;;;;;;;;;4965240;28;20413;-71
2022/05/29 06:19:02;;;;;;;3.90;1.92;;;;;;;;;;4989773;28;20042;-70
2022/05/29 06:21:36;;;;;;;5.88;1.58;;;;;;;;;;5012703;28;20060;-71
2022/05/29 06:24:07;;;;;;;4.53;2.10;;;;;;;;;;4979994;28;20060;-71
2022/05/29 06:26:37;;;;;;;5.03;1.55;;;;;;;;;;4991619;28;20049;-71
2022/05/29 06:29:08;;;;;;;5.45;1.73;;;;;;;;;;5048823;28;20068;-71
2022/05/29 06:31:39;;;;;;;3.95;1.40;;;;;;;;;;4972951;28;20053;-70
2022/05/29 06:34:10;;;;;;;3.22;1.60;;;;;;;;;;4989694;28;20062;-70
2022/05/29 06:36:40;;;;;;;7.55;1.73;;;;;;;;;;4989199;28;20054;-71
2022/05/29 06:39:10;;;;;;;4.80;1.70;;;;;;;;;;4969649;28;20055;-70
2022/05/29 06:41:41;;;;;;;4.15;1.55;;;;;;;;;;4937769;28;20066;-71
2022/05/29 06:44:13;;;;;;;4.03;1.45;;;;;;;;;;4950535;29;20076;-71
2022/05/29 06:46:44;;;;;;;4.60;1.50;;;;;;;;;;4912340;29;20056;-71
2022/05/29 06:49:14;;;;;;;3.35;1.65;;;;;;;;;;4912260;29;20424;-71
2022/05/29 06:51:44;;;;;;;6.15;1.65;;;;;;;;;;4896726;29;20133;-70
2022/05/29 06:54:15;;;;;;;6.32;1.50;;;;;;;;;;4893423;29;20052;-70
2022/05/29 06:56:45;;;;;;;3.47;1.20;;;;;;;;;;4893395;29;20056;-71
2022/05/29 06:59:15;;;;;;;6.95;1.77;;;;;;;;;;4878461;29;20421;-71
2022/05/29 07:07:11;;;;;;;4.22;1.20;;;;;;;;;;4897433;29;20406;-72
2022/05/29 07:09:42;;;;;;;5.82;1.55;;;;;;;;;;4935680;29;20194;-72
2022/05/29 07:12:20;;;;;;;5.63;1.73;;;;;;;;;;4954231;29;20063;-71
2022/05/29 07:15:09;;;;;;;4.15;1.60;;;;;;;;;;4954311;29;20091;-72
2022/05/29 07:17:39;;;;;;;4.03;1.90;;;;;;;;;;4951133;28;20590;-72
2022/05/29 07:20:10;;;;;;;5.40;1.85;;;;;;;;;;4922531;29;20082;-72
2022/05/29 07:22:42;;;;;;;8.98;1.75;;;;;;;;;;4938712;28;20530;-72
2022/05/29 07:25:13;;;;;;;5.45;1.73;;;;;;;;;;4990523;28;20091;-70
2022/05/29 07:27:44;;;;;;;3.10;1.33;;;;;;;;;;4992979;28;20050;-73
2022/05/29 07:30:14;;;;;;;4.00;1.40;;;;;;;;;;4992979;28;20081;-70
2022/05/29 07:32:44;;;;;;;2.70;1.40;;;;;;;;;;5009626;28;20065;-72
2022/05/29 07:35:16;;;;;;;6.53;1.60;;;;;;;;;;5011985;28;20073;-72
2022/05/29 07:37:47;;;;;;;3.67;1.42;;;;;;;;;;5012050;28;20557;-72
2022/05/29 07:40:17;;;;;;;2.75;1.45;;;;;;;;;;4976163;28;20184;-72
2022/05/29 07:45:37;;;;;;;3.97;1.42;;;;;;;;;;4992541;28;20066;-71
2022/05/29 07:48:08;;;;;;;4.65;1.40;;;;;;;;;;4972857;28;20054;-72
2022/05/29 07:50:39;;;;;;;3.45;1.48;;;;;;;;;;4924910;28;20062;-73
2022/05/29 07:53:09;;;;;;;5.13;1.55;;;;;;;;;;4972951;28;20054;-70
2022/05/29 07:55:40;;;;;;;8.80;1.58;;;;;;;;;;4982998;28;20045;-73
2022/05/29 07:58:12;;;;;;;5.13;1.25;;;;;;;;;;5011982;28;20058;-72
2022/05/29 08:00:43;;;;;;;4.47;1.40;;;;;;;;;;4972472;28;20061;-72
2022/05/29 08:03:13;;;;;;;2.47;1.27;;;;;;;;;;4973007;28;20054;-71
2022/05/29 08:05:44;;;;;;;3.63;1.20;;;;;;;;;;4988374;28;20062;-72
2022/05/29 08:08:14;;;;;;;5.47;1.20;;;;;;;;;;4956933;28;20495;-73
2022/05/29 08:10:45;;;;;;;3.78;1.58;;;;;;;;;;4972522;28;20070;-72
2022/05/29 08:13:16;;;;;;;3.65;1.20;;;;;;;;;;4939624;28;20554;-72
2022/05/29 08:15:46;;;;;;;2.85;1.55;;;;;;;;;;4965390;28;20050;-73
2022/05/29 08:18:17;;;;;;;3.15;1.20;;;;;;;;;;4972472;28;20062;-72
2022/05/29 08:20:47;;;;;;;4.22;1.40;;;;;;;;;;4972447;28;20055;-72
2022/05/29 08:23:26;;;;;;;5.30;1.38;;;;;;;;;;4972610;28;20403;-73
2022/05/29 08:31:16;;;;;;;3.20;1.50;;;;;;;;;;4933627;29;20059;-74
2022/05/29 08:33:47;;;;;;;3.50;1.92;;;;;;;;;;4920628;29;20060;-74
2022/05/29 08:36:24;;;;;;;5.72;1.90;;;;;;;;;;4941555;28;20507;-73
2022/05/29 08:38:56;;;;;;;5.10;1.83;;;;;;;;;;4994796;28;20050;-73
2022/05/29 08:41:40;;;;;;;2.22;1.35;;;;;;;;;;5011015;28;20069;-72
2022/05/29 08:44:14;;;;;;;6.47;1.80;;;;;;;;;;4995350;28;20104;-73
2022/05/29 08:47:00;;;;;;;6.55;1.55;;;;;;;;;;4995207;28;20058;-72
2022/05/29 08:49:39;;;;;;;3.97;2.33;;;;;;;;;;5011237;28;20057;-74
2022/05/29 08:52:21;;;;;;;6.63;2.70;;;;;;;;;;5011031;28;20498;-75
2022/05/29 08:55:20;;;;;;;5.20;2.30;;;;;;;;;;5031089;28;20057;-76
2022/05/29 08:58:05;;;;;;;5.35;2.28;;;;;;;;;;5030518;28;20068;-76
2022/05/29 09:01:04;;;;;;;6.50;2.42;;;;;;;;;;5030472;28;20058;-74
2022/05/29 09:03:55;;;;;;;5.93;2.22;;;;;;;;;;4974829;28;20077;-73
2022/05/29 09:06:34;;;;;;;3.92;2.00;;;;;;;;;;4958543;28;20086;-74
2022/05/29 09:09:22;;;;;;;7.35;2.30;;;;;;;;;;5010604;28;20050;-74
2022/05/29 09:11:58;;;;;;;4.65;2.05;;;;;;;;;;4971044;28;20046;-72
2022/05/29 09:14:45;;;;;;;3.58;1.80;;;;;;;;;;4971784;28;20574;-73
2022/05/29 09:17:25;;;;;;;6.28;1.60;;;;;;;;;;4971532;28;20067;-73
2022/05/29 09:20:09;;;;;;;5.28;1.67;;;;;;;;;;4971635;28;20043;-73
2022/05/29 09:22:47;;;;;;;3.80;1.88;;;;;;;;;;4971536;28;20061;-73
2022/05/29 09:25:42;;;;;;;2.88;1.67;;;;;;;;;;4971329;28;20435;-73
2022/05/29 09:28:16;;;;;;;5.65;2.15;;;;;;;;;;4971197;28;20062;-72
2022/05/29 09:30:46;;;;;;;8.43;2.45;;;;;;;;;;4971309;28;20058;-71
2022/05/29 09:33:28;;;;;;;3.95;2.22;;;;;;;;;;4971373;28;20054;-72
2022/05/29 09:36:20;;;;;;;5.65;2.33;;;;;;;;;;4990642;28;20059;-72
2022/05/29 09:39:09;;;;;;;6.20;2.20;;;;;;;;;;4990356;28;20769;-71
2022/05/29 09:41:47;;;;;;;5.75;2.22;;;;;;;;;;4990284;28;20147;-72
2022/05/29 09:44:21;;;;;;;6.15;3.35;;;;;;;;;;4985834;28;20128;-70
2022/05/29 09:46:52;;;;;;;7.32;3.03;;;;;;;;;;5025927;28;20049;-71
2022/05/29 09:49:41;;;;;;;7.47;3.25;;;;;;;;;;5028563;28;20057;-71
2022/05/29 09:52:32;;;;;;;8.52;3.25;;;;;;;;;;5050678;28;20396;-71
2022/05/29 09:55:26;;;;;;;7.97;3.30;;;;;;;;;;5049097;28;20049;-71
2022/05/29 09:58:02;;;;;;;6.45;2.47;;;;;;;;;;5049842;28;20161;-71
2022/05/29 10:00:39;;;;;;;5.15;2.50;;;;;;;;;;5052199;28;20542;-72
2022/05/29 10:03:29;;;;;;;7.75;2.97;;;;;;;;;;5069393;28;20409;-71
2022/05/29 10:06:27;;;;;;;8.98;3.33;;;;;;;;;;5069285;28;20060;-71
2022/05/29 10:09:20;;;;;;;7.82;3.20;;;;;;;;;;4989098;28;20053;-72
2022/05/29 10:11:53;;;;;;;5.82;2.97;;;;;;;;;;4989847;28;20058;-71
2022/05/29 10:14:33;;;;;;;11.30;3.75;;;;;;;;;;4958067;28;20050;-72
2022/05/29 10:17:35;;;;;;;6.72;2.97;;;;;;;;;;4989647;28;20050;-72
2022/05/29 10:20:45;;;;;;;7.53;3.85;;;;;;;;;;4989123;28;20058;-71
2022/05/29 10:23:34;;;;;;;5.75;2.50;;;;;;;;;;4907765;29;20048;-73
2022/05/29 10:26:16;;;;;;;5.75;2.70;;;;;;;;;;4912453;29;20067;-71
2022/05/29 10:28:47;;;;;;;6.40;2.92;;;;;;;;;;4912501;29;20044;-70
2022/05/29 10:31:24;;;;;;;7.75;2.70;;;;;;;;;;4881429;29;20063;-70
2022/05/29 10:34:27;;;;;;;7.85;2.65;;;;;;;;;;4912526;29;20497;-70
2022/05/29 10:36:58;;;;;;;8.05;3.15;;;;;;;;;;4908363;29;20053;-70
2022/05/29 10:39:31;;;;;;;7.68;3.15;;;;;;;;;;4893179;29;20517;-69
2022/05/29 10:42:05;;;;;;;5.82;2.70;;;;;;;;;;4877567;29;20064;-69
2022/05/29 10:44:41;;;;;;;6.63;3.00;;;;;;;;;;4893639;29;20563;-70
2022/05/29 10:47:16;;;;;;;4.80;2.47;;;;;;;;;;4907162;29;20056;-69
2022/05/29 10:50:01;;;;;;;7.53;3.80;;;;;;;;;;4901061;29;20050;-70
2022/05/29 10:53:14;;;;;;;7.60;3.03;;;;;;;;;;4932839;29;20067;-69
2022/05/29 10:56:07;;;;;;;6.40;3.08;;;;;;;;;;4931575;29;20187;-70
2022/05/29 10:58:47;;;;;;;6.50;2.90;;;;;;;;;;5009114;28;20069;-70
2022/05/29 11:04:51;;;;;;;6.47;2.92;;;;;;;;;;5008777;28;20513;-67
2022/05/29 11:07:39;;;;;;;8.52;3.20;;;;;;;;;;5033299;28;20060;-68
2022/05/29 11:10:30;;;;;;;7.55;3.10;;;;;;;;;;5008387;28;20505;-71
2022/05/29 11:13:04;;;;;;;5.95;3.42;;;;;;;;;;5031331;28;20045;-69
2022/05/29 11:15:56;;;;;;;7.70;3.58;;;;;;;;;;5028150;28;20081;-69
2022/05/29 11:18:50;;;;;;;7.60;3.30;;;;;;;;;;5027711;28;20045;-69
2022/05/29 11:21:29;;;;;;;6.07;3.30;;;;;;;;;;5028084;28;20391;-69
2022/05/29 11:24:25;;;;;;;10.93;3.78;;;;;;;;;;4979179;28;20057;-69
2022/05/29 11:27:10;;;;;;;9.20;4.00;;;;;;;;;;5008254;28;20419;-70
2022/05/29 11:30:04;;;;;;;6.60;3.55;;;;;;;;;;4988374;28;20043;-69
2022/05/29 11:32:46;;;;;;;13.52;5.30;;;;;;;;;;4972104;28;20050;-70
2022/05/29 11:35:41;;;;;;;14.93;6.57;;;;;;;;;;4988957;28;20077;-68
2022/05/29 11:38:36;;;;;;;11.63;4.82;;;;;;;;;;4981827;28;20062;-67
2022/05/29 11:41:17;;;;;;;9.82;5.43;;;;;;;;;;4933767;28;20055;-67
2022/05/29 11:44:00;;;;;;;8.93;4.35;;;;;;;;;;4969206;28;20410;-66
2022/05/29 11:52:39;;;;;;;10.27;5.20;;;;;;;;;;4956781;28;20066;-68
2022/05/29 11:55:27;;;;;;;12.27;7.25;;;;;;;;;;4977024;28;20066;-68
2022/05/29 11:58:09;;;;;;;16.42;8.75;;;;;;;;;;5011896;28;20061;-68
2022/05/29 12:00:48;;;;;;;14.60;8.18;;;;;;;;;;4980118;28;20187;-68
2022/05/29 12:03:40;;;;;;;13.10;7.50;;;;;;;;;;4978954;28;20058;-68
2022/05/29 12:06:16;;;;;;;12.80;6.40;;;;;;;;;;5052251;28;20052;-69
2022/05/29 12:08:54;;;;;;;9.48;4.28;;;;;;;;;;5057923;28;20055;-67
2022/05/29 12:11:41;;;;;;;9.80;5.55;;;;;;;;;;5091471;28;20649;-67
2022/05/29 12:14:25;;;;;;;6.97;3.63;;;;;;;;;;5091663;28;21046;-67
2022/05/29 12:17:15;;;;;;;5.75;3.00;;;;;;;;;;5091560;28;20047;-68
2022/05/29 12:19:56;;;;;;;5.38;2.58;;;;;;;;;;5091421;28;20055;-67
2022/05/29 12:22:48;;;;;;;13.02;6.50;;;;;;;;;;5075451;28;20052;-67
2022/05/29 12:25:37;;;;;;;13.77;8.20;;;;;;;;;;5014989;28;20069;-68
2022/05/29 12:28:20;;;;;;;18.02;10.27;;;;;;;;;;5031422;28;20056;-68
2022/05/29 12:30:52;;;;;;;19.65;10.88;;;;;;;;;;5030729;28;20050;-67
2022/05/29 12:33:23;;;;;;;;;;;;;;;;;;4972322;28;20061;-67
2022/05/29 12:35:56;;;;;;;;;;;;;;;;;;4972610;28;19922;-68
2022/05/29 12:38:40;;;;;;;18.33;9.85;;;;;;;;;;4971733;28;19922;-68
2022/05/29 12:41:49;;;;;;;6.68;3.70;;;;;;;;;;4972013;28;20550;-68
2022/05/29 12:44:29;;;;;;;12.98;6.47;;;;;;;;;;4902463;29;20056;-69
2022/05/29 12:47:18;;;;;;;10.88;5.43;;;;;;;;;;4933285;29;20056;-70
2022/05/29 12:50:03;;;;;;;10.57;6.22;;;;;;;;;;4935149;29;20055;-66
2022/05/29 12:53:07;;;;;;;11.95;6.63;;;;;;;;;;4928329;29;20067;-64
2022/05/29 12:55:49;;;;;;;11.40;6.95;;;;;;;;;;4876666;29;20064;-65
2022/05/29 12:58:31;;;;;;;9.93;4.75;;;;;;;;;;4876315;29;20056;-66
2022/05/29 13:01:10;;;;;;;7.30;3.88;;;;;;;;;;4830837;29;20065;-66
2022/05/29 13:04:19;;;;;;;6.15;3.33;;;;;;;;;;4876773;29;20092;-65
2022/05/29 13:07:05;;;;;;;15.98;8.95;;;;;;;;;;4894909;29;20057;-65
2022/05/29 13:10:02;;;;;;;64.55;36.28;;;;;;;;;;4910601;29;20045;-66
2022/05/29 13:12:40;;;;;;;68.70;37.58;;;;;;;;;;4879677;29;20465;-65
2022/05/29 13:15:22;;;;;;;25.58;13.88;;;;;;;;;;4895578;29;20052;-66
2022/05/29 13:21:20;;;;;;;28.70;17.52;;;;;;;;;;4857629;29;20065;-65
2022/05/29 13:23:55;;;;;;;16.25;9.98;;;;;;;;;;4861183;29;20064;-66
2022/05/29 13:26:31;;;;;;;40.72;24.20;;;;;;;;;;4875932;29;20049;-65
2022/05/29 13:29:09;;;;;;;30.60;17.75;;;;;;;;;;4861006;29;20048;-63
2022/05/29 13:32:13;;;;;;;18.13;7.65;;;;;;;;;;4875447;29;20495;-65
2022/05/29 13:34:49;;;;;;;20.67;13.40;;;;;;;;;;4913878;29;20064;-63
2022/05/29 13:37:47;;;;;;;18.85;11.05;;;;;;;;;;4913456;29;20052;-63
2022/05/29 13:40:42;;;;;;;20.13;11.02;;;;;;;;;;4894870;29;20159;-66
2022/05/29 13:43:15;;;;;;;42.15;23.20;;;;;;;;;;4894341;29;20052;-64
2022/05/29 13:45:45;;;;;;;18.65;10.80;;;;;;;;;;4894478;29;20122;-62
2022/05/29 13:48:27;;;;;;;15.25;9.77;;;;;;;;;;4894743;29;20457;-63
2022/05/29 13:51:18;;;;;;;12.98;6.78;;;;;;;;;;4894412;29;20067;-64
2022/05/29 13:54:09;;;;;;;11.10;7.07;;;;;;;;;;4894858;29;20067;-62
2022/05/29 13:57:08;;;;;;;6.38;3.65;;;;;;;;;;4901350;29;20067;-62
2022/05/29 14:05:47;;;;;;;11.85;6.45;;;;;;;;;;4932228;29;20056;-63
2022/05/29 14:08:20;;;;;;;10.52;6.63;;;;;;;;;;4932340;29;20100;-65
2022/05/29 14:11:00;;;;;;;12.40;7.18;;;;;;;;;;4896485;29;20048;-64
2022/05/29 14:13:58;;;;;;;11.25;7.28;;;;;;;;;;4912976;29;20060;-64
2022/05/29 14:16:31;;;;;;;12.68;7.35;;;;;;;;;;4871095;29;20053;-64
2022/05/29 14:19:13;;;;;;;7.05;2.88;;;;;;;;;;4877725;29;20088;-65
2022/05/29 14:22:04;;;;;;;7.13;4.18;;;;;;;;;;4911790;29;20066;-65
2022/05/29 14:24:47;;;;;;;3.72;2.13;;;;;;;;;;4896747;29;20048;-63
2022/05/29 14:27:33;;;;;;;7.97;4.30;;;;;;;;;;4913173;29;20056;-64
2022/05/29 14:30:20;;;;;;;12.88;7.22;;;;;;;;;;4912789;29;20452;-64
2022/05/29 14:33:12;;;;;;;8.25;4.55;;;;;;;;;;4866096;29;20056;-64
2022/05/29 14:36:05;;;;;;;23.73;15.23;;;;;;;;;;4914523;29;20052;-63
2022/05/29 14:38:38;;;;;;;17.90;10.73;;;;;;;;;;4965392;28;20399;-64
2022/05/29 14:41:17;;;;;;;26.25;16.67;;;;;;;;;;4970239;28;20451;-64
2022/05/29 14:43:48;;;;;;;17.55;12.00;;;;;;;;;;4970255;28;20063;-64
2022/05/29 14:49:31;;;;;;;19.88;11.57;;;;;;;;;;4948040;29;20051;-64
2022/05/29 14:52:16;;;;;;;19.92;11.10;;;;;;;;;;4946996;29;20051;-65
2022/05/29 14:54:49;;;;;;;;;;;;;;;;;;4976706;28;20061;-64
2022/05/29 14:57:27;;;;;;;23.23;11.73;;;;;;;;;;5009278;28;19925;-65
2022/05/29 15:00:00;;;;;;;16.77;9.07;;;;;;;;;;5008958;28;20065;-65
2022/05/29 15:02:40;;;;;;;26.15;16.27;;;;;;;;;;5009296;28;20046;-64
2022/05/29 15:05:17;;;;;;;21.13;12.30;;;;;;;;;;4969493;28;20538;-65
2022/05/29 15:11:05;;;;;;;12.23;6.40;;;;;;;;;;4889312;29;20746;-64
2022/05/29 15:13:57;;;;;;;12.55;6.95;;;;;;;;;;4874571;29;20061;-63
2022/05/29 15:16:31;;;;;;;17.05;10.13;;;;;;;;;;4875004;29;20061;-65
2022/05/29 15:19:16;;;;;;;25.85;12.75;;;;;;;;;;4859067;29;20053;-65
2022/05/29 15:24:41;;;;;;;4.68;2.20;;;;;;;;;;4863299;29;20413;-64
2022/05/29 15:27:17;;;;;;;4.03;2.00;;;;;;;;;;4911509;29;20072;-63
2022/05/29 15:29:56;;;;;;;6.75;3.10;;;;;;;;;;4926982;29;20048;-64
2022/05/29 15:32:36;;;;;;;5.72;2.83;;;;;;;;;;4934861;29;20059;-65
2022/05/29 15:35:14;;;;;;;10.02;2.10;;;;;;;;;;4930643;28;20515;-63
2022/05/29 15:37:51;;;;;;;6.60;3.58;;;;;;;;;;4953435;28;20051;-66
2022/05/29 15:40:50;;;;;;;7.80;3.90;;;;;;;;;;4912580;28;20059;-65
2022/05/29 15:43:52;;;;;;;5.35;2.50;;;;;;;;;;4896607;29;20060;-64
2022/05/29 15:46:53;;;;;;;6.63;2.75;;;;;;;;;;4934337;29;20058;-64
2022/05/29 15:49:44;;;;;;;12.40;7.70;;;;;;;;;;4968867;28;20050;-65
2022/05/29 15:52:24;;;;;;;3.40;1.98;;;;;;;;;;4972793;28;20066;-65
2022/05/29 15:55:04;;;;;;;5.10;2.45;;;;;;;;;;4973149;28;20055;-64
2022/05/29 15:57:46;;;;;;;4.13;2.33;;;;;;;;;;4982489;28;20049;-65
2022/05/29 16:00:18;;;;;;;3.03;1.52;;;;;;;;;;5020256;28;20068;-65
2022/05/29 16:03:13;;;;;;;4.55;2.00;;;;;;;;;;4995514;28;20148;-65
2022/05/29 16:05:44;;;;;;;3.17;1.83;;;;;;;;;;4993043;28;20125;-65
2022/05/29 16:08:27;;;;;;;7.30;3.63;;;;;;;;;;5007536;28;20072;-65
2022/05/29 16:10:58;;;;;;;10.05;6.30;;;;;;;;;;5008919;28;20050;-66
2022/05/29 16:13:50;;;;;;;10.20;6.18;;;;;;;;;;5008031;28;20058;-64
2022/05/29 16:16:22;;;;;;;7.35;3.95;;;;;;;;;;4945186;28;20089;-66
2022/05/29 16:19:34;;;;;;;5.90;2.53;;;;;;;;;;4972238;28;20061;-66
2022/05/29 16:22:26;;;;;;;1.88;0.95;;;;;;;;;;5006206;28;20069;-66
2022/05/29 16:25:21;;;;;;;4.47;1.50;;;;;;;;;;5010318;28;20058;-66
2022/05/29 16:27:57;;;;;;;2.78;1.25;;;;;;;;;;5007674;28;20058;-67
2022/05/29 16:30:43;;;;;;;12.35;5.40;;;;;;;;;;5002597;28;20046;-67
2022/05/29 16:33:19;;;;;;;4.70;1.70;;;;;;;;;;4994338;28;20058;-66
2022/05/29 16:35:57;;;;;;;4.60;0.73;;;;;;;;;;5027726;28;20046;-66
2022/05/29 16:51:07;;;;;;;1.33;0.52;;;;;;;;;;5012301;28;20057;-66